Luminous Kobe-2 — JJ3868 — position and weather

sailwx.info

Track history (hours):
 
Tides and Currents Weather Stations Pressure Air Temp Water Temp Dewpoint Dewpoint Depression Visibility Wind Speed Wind Dir Waves Ship Positions

Luminous Kobe-2

Last reported at 2014-Jul-25 03:33 UTC. Time now 2014-Jul-25 03:44 UTC.
Position N 34°37' E 135°14'.

Length 105 m; draft 4.5 m.

Type: Passenger vessel. MMSI: 431000469.

Date/timePositionNaut miles runAvg speedWind from/ knotsBaromVisibWave heightAir tempDewpointWater temp
2014-Jul-25 03:33N 34°37' E 135°14'4 3.6
2014-Jul-25 02:22N 34°41' E 135°11'0 0.0
2014-Jul-25 01:28N 34°41' E 135°11'0 0.0
2014-Jul-25 00:28N 34°41' E 135°11'0 0.0
2014-Jul-24 23:16N 34°41' E 135°11'0 0.0
2014-Jul-24 22:10N 34°41' E 135°11'0 0.0
2014-Jul-24 21:28N 34°41' E 135°11'0 0.0
2014-Jul-24 20:28N 34°41' E 135°11'0 0.0
2014-Jul-24 19:22N 34°41' E 135°11'0 0.0
2014-Jul-24 18:28N 34°41' E 135°11'0 0.0
2014-Jul-24 17:28N 34°41' E 135°11'0 0.0
2014-Jul-24 16:28N 34°41' E 135°11'0 0.0
2014-Jul-24 15:28N 34°41' E 135°11'0 0.0
2014-Jul-24 14:28N 34°41' E 135°11'0 0.0
2014-Jul-24 13:28N 34°41' E 135°11'0 0.0
2014-Jul-24 12:28N 34°41' E 135°11'6 6.6
2014-Jul-24 11:33N 34°36' E 135°07'1 0.8
2014-Jul-24 10:34N 34°37' E 135°06'6 5.7
2014-Jul-24 09:29N 34°41' E 135°11'5 5.4
2014-Jul-24 08:33N 34°37' E 135°07'5 5.0
2014-Jul-24 07:33N 34°41' E 135°11'0 0.0
2014-Jul-24 06:33N 34°41' E 135°11'0 0.0
2014-Jul-24 05:33N 34°41' E 135°11'2 2.0
2014-Jul-24 04:33N 34°39' E 135°11'2 2.4
2014-Jul-24 03:33N 34°37' E 135°14'4 3.3
2014-Jul-24 02:23N 34°41' E 135°11'0 0.0
2014-Jul-24 01:29N 34°41' E 135°11'0 0.0
2014-Jul-24 00:23N 34°41' E 135°11'0 0.0
2014-Jul-23 23:29N 34°41' E 135°11'0 0.0
2014-Jul-23 22:29N 34°41' E 135°11'0 0.0
2014-Jul-23 21:29N 34°41' E 135°11'0 0.0
2014-Jul-23 20:29N 34°41' E 135°11'0 0.0
2014-Jul-23 19:29N 34°41' E 135°11'0 0.0
2014-Jul-23 18:29N 34°41' E 135°11'0 0.0
2014-Jul-23 17:29N 34°41' E 135°11'0 0.0
2014-Jul-23 16:29N 34°41' E 135°11'0 0.0
2014-Jul-23 15:29N 34°41' E 135°11'0 0.0
2014-Jul-23 14:29N 34°41' E 135°11'0 0.0
2014-Jul-23 13:29N 34°41' E 135°11'0 0.0
2014-Jul-23 12:29N 34°41' E 135°11'7 7.1
2014-Jul-23 11:34N 34°36' E 135°06'1 1.1
2014-Jul-23 10:34N 34°37' E 135°06'6 5.7
2014-Jul-23 09:31N 34°41' E 135°11'5 5.4
2014-Jul-23 08:33N 34°37' E 135°07'5 4.8
2014-Jul-23 07:29N 34°41' E 135°11'0 0.0
2014-Jul-23 06:29N 34°41' E 135°11'0 0.0
2014-Jul-23 05:23N 34°41' E 135°11'2 2.4
2014-Jul-23 04:33N 34°39' E 135°11'2 2.2
2014-Jul-23 03:34N 34°37' E 135°13'4 3.9
2014-Jul-23 02:33N 34°41' E 135°11'0 0.0
2014-Jul-23 01:29N 34°41' E 135°11'0 0.0
2014-Jul-23 00:29N 34°41' E 135°11'0 0.0
2014-Jul-22 23:29N 34°41' E 135°11'0 0.0
2014-Jul-22 22:29N 34°41' E 135°11'0 0.0
2014-Jul-22 21:29N 34°41' E 135°11'0 0.0
2014-Jul-22 20:29N 34°41' E 135°11'0 0.0
2014-Jul-22 19:23N 34°41' E 135°11'0 0.0
2014-Jul-22 18:29N 34°41' E 135°11'0 0.0
2014-Jul-22 17:29N 34°41' E 135°11'0 0.0
2014-Jul-22 16:29N 34°41' E 135°11'0 0.0
2014-Jul-22 15:29N 34°41' E 135°11'0 0.0
2014-Jul-22 14:29N 34°41' E 135°11'0 0.0
2014-Jul-22 13:29N 34°41' E 135°11'0 0.0
2014-Jul-22 12:29N 34°41' E 135°11'6 6.5
2014-Jul-22 11:34N 34°36' E 135°07'1 0.9
2014-Jul-22 10:33N 34°37' E 135°07'6 5.2
2014-Jul-22 09:29N 34°41' E 135°11'5 5.8
2014-Jul-22 08:33N 34°37' E 135°07'5 5.2
2014-Jul-22 07:33N 34°41' E 135°11'0 0.0
2014-Jul-22 06:33N 34°41' E 135°11'0 0.0
2014-Jul-22 05:30N 34°41' E 135°11'2 2.2
2014-Jul-22 04:33N 34°39' E 135°11'2 2.5
2014-Jul-22 03:33N 34°37' E 135°14'4 3.6
2014-Jul-22 02:29N 34°41' E 135°11'0 0.0
2014-Jul-22 01:17N 34°41' E 135°11'0 0.0
2014-Jul-22 00:29N 34°41' E 135°11'0 0.0
2014-Jul-21 23:29N 34°41' E 135°11'0 0.0
2014-Jul-21 22:29N 34°41' E 135°11'0 0.0
2014-Jul-21 21:29N 34°41' E 135°11'0 0.0
2014-Jul-21 20:29N 34°41' E 135°11'0 0.0
2014-Jul-21 20:17N 34°41' E 135°11'0 0.0
2014-Jul-21 19:29N 34°41' E 135°11'0 0.0
2014-Jul-21 18:23N 34°41' E 135°11'0 0.0
2014-Jul-21 17:23N 34°41' E 135°11'0 0.0
2014-Jul-21 16:29N 34°41' E 135°11'0 0.0
2014-Jul-21 15:29N 34°41' E 135°11'0 0.0
2014-Jul-21 14:29N 34°41' E 135°11'0 0.0
2014-Jul-21 13:29N 34°41' E 135°11'0 0.0
2014-Jul-21 12:23N 34°41' E 135°11'7 8.0
2014-Jul-21 11:33N 34°36' E 135°06'1 0.8
2014-Jul-21 10:33N 34°37' E 135°06'6 5.5
2014-Jul-21 09:30N 34°41' E 135°11'2 1.9
2014-Jul-21 08:33N 34°39' E 135°11'2 2.5
2014-Jul-21 07:33N 34°37' E 135°13'4 3.7
2014-Jul-21 06:31N 34°41' E 135°11'0 0.0
2014-Jul-21 05:31N 34°41' E 135°11'2 2.0
2014-Jul-21 04:34N 34°39' E 135°11'2 2.1
2014-Jul-21 03:32N 34°38' E 135°13'4 3.3
2014-Jul-21 02:25N 34°41' E 135°11'0 0.0
2014-Jul-21 01:31N 34°41' E 135°11'0 0.0
2014-Jul-21 00:25N 34°41' E 135°11'0 0.0
2014-Jul-20 23:31N 34°41' E 135°11'0 0.0
2014-Jul-20 22:31N 34°41' E 135°11'0 0.0
2014-Jul-20 21:31N 34°41' E 135°11'0 0.0
2014-Jul-20 20:31N 34°41' E 135°11'0 0.0
2014-Jul-20 19:31N 34°41' E 135°11'0 0.0
2014-Jul-20 18:31N 34°41' E 135°11'0 0.0
2014-Jul-20 17:31N 34°41' E 135°11'0 0.0
2014-Jul-20 16:25N 34°41' E 135°11'0 0.0
2014-Jul-20 15:31N 34°41' E 135°11'0 0.0
2014-Jul-20 14:31N 34°41' E 135°11'0 0.0
2014-Jul-20 13:31N 34°41' E 135°11'0 0.2
2014-Jul-20 12:33N 34°41' E 135°12'1110.8
2014-Jul-20 11:33N 34°34' E 135°01'5 5.3
2014-Jul-20 10:33N 34°36' E 135°07'6 5.8
2014-Jul-20 09:32N 34°41' E 135°11'2 1.7
2014-Jul-20 08:33N 34°39' E 135°11'2 1.6
2014-Jul-20 07:33N 34°38' E 135°12'3 2.9
2014-Jul-20 06:25N 34°41' E 135°11'0 0.0
2014-Jul-20 05:31N 34°41' E 135°11'2 2.1
2014-Jul-20 04:33N 34°39' E 135°11'3 2.5
2014-Jul-20 03:33N 34°37' E 135°14'4 4.0
2014-Jul-20 02:33N 34°41' E 135°11'0 0.0
2014-Jul-20 01:25N 34°41' E 135°11'0 0.0
2014-Jul-20 00:31N 34°41' E 135°11'0 0.0
2014-Jul-19 23:31N 34°41' E 135°11'0 0.0
2014-Jul-19 22:31N 34°41' E 135°11'0 0.0
2014-Jul-19 21:31N 34°41' E 135°11'0 0.0
2014-Jul-19 20:31N 34°41' E 135°11'0 0.0
2014-Jul-19 19:25N 34°41' E 135°11'0 0.0
2014-Jul-19 18:31N 34°41' E 135°11'0 0.0
2014-Jul-19 17:31N 34°41' E 135°11'0 0.0
2014-Jul-19 16:25N 34°41' E 135°11'0 0.0
2014-Jul-19 15:31N 34°41' E 135°11'0 0.0
2014-Jul-19 14:31N 34°41' E 135°11'0 0.0
2014-Jul-19 13:31N 34°41' E 135°11'0 0.0
2014-Jul-19 12:31N 34°41' E 135°11'6 6.5
2014-Jul-19 11:33N 34°35' E 135°07'1 1.4
2014-Jul-19 10:33N 34°37' E 135°07'5 4.2
2014-Jul-19 09:15N 34°41' E 135°11'2 2.9
2014-Jul-19 08:33N 34°39' E 135°11'2 2.5
2014-Jul-19 07:33N 34°37' E 135°14'4 3.6
2014-Jul-19 06:28N 34°41' E 135°11'0 0.0
2014-Jul-19 05:28N 34°41' E 135°11'2 2.4
2014-Jul-19 04:33N 34°39' E 135°11'2 1.9
2014-Jul-19 03:33N 34°37' E 135°13'4 3.6
2014-Jul-19 02:32N 34°41' E 135°11'0 0.0
2014-Jul-19 01:32N 34°41' E 135°11'0 0.0
2014-Jul-19 00:32N 34°41' E 135°11'0 0.0
2014-Jul-18 23:32N 34°41' E 135°11'0 0.0
2014-Jul-18 22:32N 34°41' E 135°11'0 0.0
2014-Jul-18 21:32N 34°41' E 135°11'0 0.0
2014-Jul-18 20:32N 34°41' E 135°11'0 0.0
2014-Jul-18 19:32N 34°41' E 135°11'0 0.0
2014-Jul-18 18:32N 34°41' E 135°11'0 0.0
2014-Jul-18 17:32N 34°41' E 135°11'0 0.0
2014-Jul-18 16:32N 34°41' E 135°11'0 0.0
2014-Jul-18 15:32N 34°41' E 135°11'0 0.0
2014-Jul-18 14:32N 34°41' E 135°11'0 0.0
2014-Jul-18 13:32N 34°41' E 135°11'0 0.0
2014-Jul-18 12:32N 34°41' E 135°11'7 7.2
2014-Jul-18 11:33N 34°36' E 135°06'2 1.7
2014-Jul-18 10:33N 34°37' E 135°07'5 5.2
2014-Jul-18 09:33N 34°41' E 135°11'5 5.2
2014-Jul-18 08:34N 34°37' E 135°07'5 5.0
2014-Jul-18 07:31N 34°41' E 135°11'0 0.0
2014-Jul-18 06:31N 34°41' E 135°11'0 0.0
2014-Jul-18 05:25N 34°41' E 135°11'2 2.5
2014-Jul-18 04:33N 34°39' E 135°11'3 2.7
2014-Jul-18 03:33N 34°37' E 135°14'4 4.2
2014-Jul-18 02:33N 34°41' E 135°11'0 0.0
2014-Jul-18 01:33N 34°41' E 135°11'0 0.0
2014-Jul-18 00:33N 34°41' E 135°11'0 0.0
2014-Jul-17 23:33N 34°41' E 135°11'0 0.0
2014-Jul-17 22:27N 34°41' E 135°11'0 0.0
2014-Jul-17 21:33N 34°41' E 135°11'0 0.0
2014-Jul-17 20:27N 34°41' E 135°11'0 0.0
2014-Jul-17 19:27N 34°41' E 135°11'0 0.0
2014-Jul-17 18:33N 34°41' E 135°11'0 0.0
2014-Jul-17 17:33N 34°41' E 135°11'0 0.0
2014-Jul-17 16:33N 34°41' E 135°11'0 0.0
2014-Jul-17 15:33N 34°41' E 135°11'0 0.0
2014-Jul-17 14:33N 34°41' E 135°11'0 0.0
2014-Jul-17 13:27N 34°41' E 135°11'0 0.0
2014-Jul-17 12:33N 34°41' E 135°11'7 7.3
2014-Jul-17 11:33N 34°35' E 135°06'2 2.2
2014-Jul-17 10:33N 34°37' E 135°07'5 4.8
2014-Jul-17 09:30N 34°41' E 135°11'5 5.3
2014-Jul-17 08:33N 34°37' E 135°07'5 5.1
2014-Jul-17 07:33N 34°41' E 135°11'0 0.0
2014-Jul-17 06:33N 34°41' E 135°11'0 0.0
2014-Jul-17 05:33N 34°41' E 135°11'2 2.2
2014-Jul-17 04:34N 34°39' E 135°11'3 2.9
2014-Jul-17 03:33N 34°37' E 135°14'4 4.3
2014-Jul-17 02:32N 34°41' E 135°11'0 0.0
2014-Jul-17 01:32N 34°41' E 135°11'0 0.0
2014-Jul-17 00:32N 34°41' E 135°11'0 0.0
2014-Jul-16 23:26N 34°41' E 135°11'0 0.0
2014-Jul-16 22:26N 34°41' E 135°11'0 0.0
2014-Jul-16 21:32N 34°41' E 135°11'0 0.0
2014-Jul-16 20:32N 34°41' E 135°11'0 0.0
2014-Jul-16 19:32N 34°41' E 135°11'0 0.0
2014-Jul-16 18:32N 34°41' E 135°11'0 0.0
2014-Jul-16 17:26N 34°41' E 135°11'0 0.0
2014-Jul-16 16:32N 34°41' E 135°11'0 0.0
2014-Jul-16 15:32N 34°41' E 135°11'0 0.0
2014-Jul-16 14:32N 34°41' E 135°11'0 0.0
2014-Jul-16 13:32N 34°41' E 135°11'0 0.0
2014-Jul-16 12:26N 34°41' E 135°11'8 8.7
2014-Jul-16 11:33N 34°35' E 135°05'2 1.8
2014-Jul-16 10:33N 34°37' E 135°06'6 5.7
2014-Jul-16 09:32N 34°41' E 135°11'5 5.2
2014-Jul-16 08:33N 34°38' E 135°07'5 5.1
2014-Jul-16 07:33N 34°41' E 135°11'0 0.0
2014-Jul-16 06:33N 34°41' E 135°11'0 0.0
2014-Jul-16 05:34N 34°41' E 135°11'2 1.8
2014-Jul-16 04:34N 34°39' E 135°11'4 3.5
2014-Jul-16 03:33N 34°37' E 135°08'5 4.8
2014-Jul-16 02:32N 34°41' E 135°11'0 0.0
2014-Jul-16 01:26N 34°41' E 135°11'0 0.0
2014-Jul-16 00:32N 34°41' E 135°11'0 0.0
2014-Jul-15 23:32N 34°41' E 135°11'0 0.0
2014-Jul-15 22:26N 34°41' E 135°11'0 0.0
2014-Jul-15 21:32N 34°41' E 135°11'0 0.0
2014-Jul-15 20:20N 34°41' E 135°11'0 0.0
2014-Jul-15 19:26N 34°41' E 135°11'0 0.0
2014-Jul-15 18:32N 34°41' E 135°11'0 0.0
2014-Jul-15 17:32N 34°41' E 135°11'0 0.0
2014-Jul-15 16:32N 34°41' E 135°11'0 0.0
2014-Jul-15 15:32N 34°41' E 135°11'0 0.0
2014-Jul-15 14:32N 34°41' E 135°11'0 0.0
2014-Jul-15 13:32N 34°41' E 135°11'0 0.0
2014-Jul-15 12:29N 34°41' E 135°11'8 8.6
2014-Jul-15 11:33N 34°35' E 135°05'2 2.0
2014-Jul-15 10:33N 34°37' E 135°06'6 5.9
2014-Jul-15 09:32N 34°41' E 135°11'5 5.5
2014-Jul-15 08:33N 34°37' E 135°06'5 4.6
2014-Jul-15 07:23N 34°41' E 135°11'0 0.0
2014-Jul-15 06:23N 34°41' E 135°11'0 0.0
2014-Jul-15 05:29N 34°41' E 135°11'2 2.5
2014-Jul-15 04:33N 34°39' E 135°11'  
Track history (hours):
 
Tides and Currents Weather Stations Pressure Air Temp Water Temp Dewpoint Dewpoint Depression Visibility Wind Speed Wind Dir Waves Ship Positions

Luminous Kobe-2

Last reported at 2014-Jul-25 03:33 UTC. Time now 2014-Jul-25 03:44 UTC.
Position N 34°37' E 135°14'.

Length 105 m; draft 4.5 m.

Type: Passenger vessel. MMSI: 431000469.

Date/timePositionNaut miles runAvg speedWind from/ knotsBaromVisibWave heightAir tempDewpointWater temp
2014-Jul-25 03:33N 34°37' E 135°14'4 3.6
2014-Jul-25 02:22N 34°41' E 135°11'0 0.0
2014-Jul-25 01:28N 34°41' E 135°11'0 0.0
2014-Jul-25 00:28N 34°41' E 135°11'0 0.0
2014-Jul-24 23:16N 34°41' E 135°11'0 0.0
2014-Jul-24 22:10N 34°41' E 135°11'0 0.0
2014-Jul-24 21:28N 34°41' E 135°11'0 0.0
2014-Jul-24 20:28N 34°41' E 135°11'0 0.0
2014-Jul-24 19:22N 34°41' E 135°11'0 0.0
2014-Jul-24 18:28N 34°41' E 135°11'0 0.0
2014-Jul-24 17:28N 34°41' E 135°11'0 0.0
2014-Jul-24 16:28N 34°41' E 135°11'0 0.0
2014-Jul-24 15:28N 34°41' E 135°11'0 0.0
2014-Jul-24 14:28N 34°41' E 135°11'0 0.0
2014-Jul-24 13:28N 34°41' E 135°11'0 0.0
2014-Jul-24 12:28N 34°41' E 135°11'6 6.6
2014-Jul-24 11:33N 34°36' E 135°07'1 0.8
2014-Jul-24 10:34N 34°37' E 135°06'6 5.7
2014-Jul-24 09:29N 34°41' E 135°11'5 5.4
2014-Jul-24 08:33N 34°37' E 135°07'5 5.0
2014-Jul-24 07:33N 34°41' E 135°11'0 0.0
2014-Jul-24 06:33N 34°41' E 135°11'0 0.0
2014-Jul-24 05:33N 34°41' E 135°11'2 2.0
2014-Jul-24 04:33N 34°39' E 135°11'2 2.4
2014-Jul-24 03:33N 34°37' E 135°14'4 3.3
2014-Jul-24 02:23N 34°41' E 135°11'0 0.0
2014-Jul-24 01:29N 34°41' E 135°11'0 0.0
2014-Jul-24 00:23N 34°41' E 135°11'0 0.0
2014-Jul-23 23:29N 34°41' E 135°11'0 0.0
2014-Jul-23 22:29N 34°41' E 135°11'0 0.0
2014-Jul-23 21:29N 34°41' E 135°11'0 0.0
2014-Jul-23 20:29N 34°41' E 135°11'0 0.0
2014-Jul-23 19:29N 34°41' E 135°11'0 0.0
2014-Jul-23 18:29N 34°41' E 135°11'0 0.0
2014-Jul-23 17:29N 34°41' E 135°11'0 0.0
2014-Jul-23 16:29N 34°41' E 135°11'0 0.0
2014-Jul-23 15:29N 34°41' E 135°11'0 0.0
2014-Jul-23 14:29N 34°41' E 135°11'0 0.0
2014-Jul-23 13:29N 34°41' E 135°11'0 0.0
2014-Jul-23 12:29N 34°41' E 135°11'7 7.1
2014-Jul-23 11:34N 34°36' E 135°06'1 1.1
2014-Jul-23 10:34N 34°37' E 135°06'6 5.7
2014-Jul-23 09:31N 34°41' E 135°11'5 5.4
2014-Jul-23 08:33N 34°37' E 135°07'5 4.8
2014-Jul-23 07:29N 34°41' E 135°11'0 0.0
2014-Jul-23 06:29N 34°41' E 135°11'0 0.0
2014-Jul-23 05:23N 34°41' E 135°11'2 2.4
2014-Jul-23 04:33N 34°39' E 135°11'2 2.2
2014-Jul-23 03:34N 34°37' E 135°13'4 3.9
2014-Jul-23 02:33N 34°41' E 135°11'0 0.0
2014-Jul-23 01:29N 34°41' E 135°11'0 0.0
2014-Jul-23 00:29N 34°41' E 135°11'0 0.0
2014-Jul-22 23:29N 34°41' E 135°11'0 0.0
2014-Jul-22 22:29N 34°41' E 135°11'0 0.0
2014-Jul-22 21:29N 34°41' E 135°11'0 0.0
2014-Jul-22 20:29N 34°41' E 135°11'0 0.0
2014-Jul-22 19:23N 34°41' E 135°11'0 0.0
2014-Jul-22 18:29N 34°41' E 135°11'0 0.0
2014-Jul-22 17:29N 34°41' E 135°11'0 0.0
2014-Jul-22 16:29N 34°41' E 135°11'0 0.0
2014-Jul-22 15:29N 34°41' E 135°11'0 0.0
2014-Jul-22 14:29N 34°41' E 135°11'0 0.0
2014-Jul-22 13:29N 34°41' E 135°11'0 0.0
2014-Jul-22 12:29N 34°41' E 135°11'6 6.5
2014-Jul-22 11:34N 34°36' E 135°07'1 0.9
2014-Jul-22 10:33N 34°37' E 135°07'6 5.2
2014-Jul-22 09:29N 34°41' E 135°11'5 5.8
2014-Jul-22 08:33N 34°37' E 135°07'5 5.2
2014-Jul-22 07:33N 34°41' E 135°11'0 0.0
2014-Jul-22 06:33N 34°41' E 135°11'0 0.0
2014-Jul-22 05:30N 34°41' E 135°11'2 2.2
2014-Jul-22 04:33N 34°39' E 135°11'2 2.5
2014-Jul-22 03:33N 34°37' E 135°14'4 3.6
2014-Jul-22 02:29N 34°41' E 135°11'0 0.0
2014-Jul-22 01:17N 34°41' E 135°11'0 0.0
2014-Jul-22 00:29N 34°41' E 135°11'0 0.0
2014-Jul-21 23:29N 34°41' E 135°11'0 0.0
2014-Jul-21 22:29N 34°41' E 135°11'0 0.0
2014-Jul-21 21:29N 34°41' E 135°11'0 0.0
2014-Jul-21 20:29N 34°41' E 135°11'0 0.0
2014-Jul-21 20:17N 34°41' E 135°11'0 0.0
2014-Jul-21 19:29N 34°41' E 135°11'0 0.0
2014-Jul-21 18:23N 34°41' E 135°11'0 0.0
2014-Jul-21 17:23N 34°41' E 135°11'0 0.0
2014-Jul-21 16:29N 34°41' E 135°11'0 0.0
2014-Jul-21 15:29N 34°41' E 135°11'0 0.0
2014-Jul-21 14:29N 34°41' E 135°11'0 0.0
2014-Jul-21 13:29N 34°41' E 135°11'0 0.0
2014-Jul-21 12:23N 34°41' E 135°11'7 8.0
2014-Jul-21 11:33N 34°36' E 135°06'1 0.8
2014-Jul-21 10:33N 34°37' E 135°06'6 5.5
2014-Jul-21 09:30N 34°41' E 135°11'2 1.9
2014-Jul-21 08:33N 34°39' E 135°11'2 2.5
2014-Jul-21 07:33N 34°37' E 135°13'4 3.7
2014-Jul-21 06:31N 34°41' E 135°11'0 0.0
2014-Jul-21 05:31N 34°41' E 135°11'2 2.0
2014-Jul-21 04:34N 34°39' E 135°11'2 2.1
2014-Jul-21 03:32N 34°38' E 135°13'4 3.3
2014-Jul-21 02:25N 34°41' E 135°11'0 0.0
2014-Jul-21 01:31N 34°41' E 135°11'0 0.0
2014-Jul-21 00:25N 34°41' E 135°11'0 0.0
2014-Jul-20 23:31N 34°41' E 135°11'0 0.0
2014-Jul-20 22:31N 34°41' E 135°11'0 0.0
2014-Jul-20 21:31N 34°41' E 135°11'0 0.0
2014-Jul-20 20:31N 34°41' E 135°11'0 0.0
2014-Jul-20 19:31N 34°41' E 135°11'0 0.0
2014-Jul-20 18:31N 34°41' E 135°11'0 0.0
2014-Jul-20 17:31N 34°41' E 135°11'0 0.0
2014-Jul-20 16:25N 34°41' E 135°11'0 0.0
2014-Jul-20 15:31N 34°41' E 135°11'0 0.0
2014-Jul-20 14:31N 34°41' E 135°11'0 0.0
2014-Jul-20 13:31N 34°41' E 135°11'0 0.2
2014-Jul-20 12:33N 34°41' E 135°12'1110.8
2014-Jul-20 11:33N 34°34' E 135°01'5 5.3
2014-Jul-20 10:33N 34°36' E 135°07'6 5.8
2014-Jul-20 09:32N 34°41' E 135°11'2 1.7
2014-Jul-20 08:33N 34°39' E 135°11'2 1.6
2014-Jul-20 07:33N 34°38' E 135°12'3 2.9
2014-Jul-20 06:25N 34°41' E 135°11'0 0.0
2014-Jul-20 05:31N 34°41' E 135°11'2 2.1
2014-Jul-20 04:33N 34°39' E 135°11'3 2.5
2014-Jul-20 03:33N 34°37' E 135°14'4 4.0
2014-Jul-20 02:33N 34°41' E 135°11'0 0.0
2014-Jul-20 01:25N 34°41' E 135°11'0 0.0
2014-Jul-20 00:31N 34°41' E 135°11'0 0.0
2014-Jul-19 23:31N 34°41' E 135°11'0 0.0
2014-Jul-19 22:31N 34°41' E 135°11'0 0.0
2014-Jul-19 21:31N 34°41' E 135°11'0 0.0
2014-Jul-19 20:31N 34°41' E 135°11'0 0.0
2014-Jul-19 19:25N 34°41' E 135°11'0 0.0
2014-Jul-19 18:31N 34°41' E 135°11'0 0.0
2014-Jul-19 17:31N 34°41' E 135°11'0 0.0
2014-Jul-19 16:25N 34°41' E 135°11'0 0.0
2014-Jul-19 15:31N 34°41' E 135°11'0 0.0
2014-Jul-19 14:31N 34°41' E 135°11'0 0.0
2014-Jul-19 13:31N 34°41' E 135°11'0 0.0
2014-Jul-19 12:31N 34°41' E 135°11'6 6.5
2014-Jul-19 11:33N 34°35' E 135°07'1 1.4
2014-Jul-19 10:33N 34°37' E 135°07'5 4.2
2014-Jul-19 09:15N 34°41' E 135°11'2 2.9
2014-Jul-19 08:33N 34°39' E 135°11'2 2.5
2014-Jul-19 07:33N 34°37' E 135°14'4 3.6
2014-Jul-19 06:28N 34°41' E 135°11'0 0.0
2014-Jul-19 05:28N 34°41' E 135°11'2 2.4
2014-Jul-19 04:33N 34°39' E 135°11'2 1.9
2014-Jul-19 03:33N 34°37' E 135°13'4 3.6
2014-Jul-19 02:32N 34°41' E 135°11'0 0.0
2014-Jul-19 01:32N 34°41' E 135°11'0 0.0
2014-Jul-19 00:32N 34°41' E 135°11'0 0.0
2014-Jul-18 23:32N 34°41' E 135°11'0 0.0
2014-Jul-18 22:32N 34°41' E 135°11'0 0.0
2014-Jul-18 21:32N 34°41' E 135°11'0 0.0
2014-Jul-18 20:32N 34°41' E 135°11'0 0.0
2014-Jul-18 19:32N 34°41' E 135°11'0 0.0
2014-Jul-18 18:32N 34°41' E 135°11'0 0.0
2014-Jul-18 17:32N 34°41' E 135°11'0 0.0
2014-Jul-18 16:32N 34°41' E 135°11'0 0.0
2014-Jul-18 15:32N 34°41' E 135°11'0 0.0
2014-Jul-18 14:32N 34°41' E 135°11'0 0.0
2014-Jul-18 13:32N 34°41' E 135°11'0 0.0
2014-Jul-18 12:32N 34°41' E 135°11'7 7.2
2014-Jul-18 11:33N 34°36' E 135°06'2 1.7
2014-Jul-18 10:33N 34°37' E 135°07'5 5.2
2014-Jul-18 09:33N 34°41' E 135°11'5 5.2
2014-Jul-18 08:34N 34°37' E 135°07'5 5.0
2014-Jul-18 07:31N 34°41' E 135°11'0 0.0
2014-Jul-18 06:31N 34°41' E 135°11'0 0.0
2014-Jul-18 05:25N 34°41' E 135°11'2 2.5
2014-Jul-18 04:33N 34°39' E 135°11'3 2.7
2014-Jul-18 03:33N 34°37' E 135°14'4 4.2
2014-Jul-18 02:33N 34°41' E 135°11'0 0.0
2014-Jul-18 01:33N 34°41' E 135°11'0 0.0
2014-Jul-18 00:33N 34°41' E 135°11'0 0.0
2014-Jul-17 23:33N 34°41' E 135°11'0 0.0
2014-Jul-17 22:27N 34°41' E 135°11'0 0.0
2014-Jul-17 21:33N 34°41' E 135°11'0 0.0
2014-Jul-17 20:27N 34°41' E 135°11'0 0.0
2014-Jul-17 19:27N 34°41' E 135°11'0 0.0
2014-Jul-17 18:33N 34°41' E 135°11'0 0.0
2014-Jul-17 17:33N 34°41' E 135°11'0 0.0
2014-Jul-17 16:33N 34°41' E 135°11'0 0.0
2014-Jul-17 15:33N 34°41' E 135°11'0 0.0
2014-Jul-17 14:33N 34°41' E 135°11'0 0.0
2014-Jul-17 13:27N 34°41' E 135°11'0 0.0
2014-Jul-17 12:33N 34°41' E 135°11'7 7.3
2014-Jul-17 11:33N 34°35' E 135°06'2 2.2
2014-Jul-17 10:33N 34°37' E 135°07'5 4.8
2014-Jul-17 09:30N 34°41' E 135°11'5 5.3
2014-Jul-17 08:33N 34°37' E 135°07'5 5.1
2014-Jul-17 07:33N 34°41' E 135°11'0 0.0
2014-Jul-17 06:33N 34°41' E 135°11'0 0.0
2014-Jul-17 05:33N 34°41' E 135°11'2 2.2
2014-Jul-17 04:34N 34°39' E 135°11'3 2.9
2014-Jul-17 03:33N 34°37' E 135°14'4 4.3
2014-Jul-17 02:32N 34°41' E 135°11'0 0.0
2014-Jul-17 01:32N 34°41' E 135°11'0 0.0
2014-Jul-17 00:32N 34°41' E 135°11'0 0.0
2014-Jul-16 23:26N 34°41' E 135°11'0 0.0
2014-Jul-16 22:26N 34°41' E 135°11'0 0.0
2014-Jul-16 21:32N 34°41' E 135°11'0 0.0
2014-Jul-16 20:32N 34°41' E 135°11'0 0.0
2014-Jul-16 19:32N 34°41' E 135°11'0 0.0
2014-Jul-16 18:32N 34°41' E 135°11'0 0.0
2014-Jul-16 17:26N 34°41' E 135°11'0 0.0
2014-Jul-16 16:32N 34°41' E 135°11'0 0.0
2014-Jul-16 15:32N 34°41' E 135°11'0 0.0
2014-Jul-16 14:32N 34°41' E 135°11'0 0.0
2014-Jul-16 13:32N 34°41' E 135°11'0 0.0
2014-Jul-16 12:26N 34°41' E 135°11'8 8.7
2014-Jul-16 11:33N 34°35' E 135°05'2 1.8
2014-Jul-16 10:33N 34°37' E 135°06'6 5.7
2014-Jul-16 09:32N 34°41' E 135°11'5 5.2
2014-Jul-16 08:33N 34°38' E 135°07'5 5.1
2014-Jul-16 07:33N 34°41' E 135°11'0 0.0
2014-Jul-16 06:33N 34°41' E 135°11'0 0.0
2014-Jul-16 05:34N 34°41' E 135°11'2 1.8
2014-Jul-16 04:34N 34°39' E 135°11'4 3.5
2014-Jul-16 03:33N 34°37' E 135°08'5 4.8
2014-Jul-16 02:32N 34°41' E 135°11'0 0.0
2014-Jul-16 01:26N 34°41' E 135°11'0 0.0
2014-Jul-16 00:32N 34°41' E 135°11'0 0.0
2014-Jul-15 23:32N 34°41' E 135°11'0 0.0
2014-Jul-15 22:26N 34°41' E 135°11'0 0.0
2014-Jul-15 21:32N 34°41' E 135°11'0 0.0
2014-Jul-15 20:20N 34°41' E 135°11'0 0.0
2014-Jul-15 19:26N 34°41' E 135°11'0 0.0
2014-Jul-15 18:32N 34°41' E 135°11'0 0.0
2014-Jul-15 17:32N 34°41' E 135°11'0 0.0
2014-Jul-15 16:32N 34°41' E 135°11'0 0.0
2014-Jul-15 15:32N 34°41' E 135°11'0 0.0
2014-Jul-15 14:32N 34°41' E 135°11'0 0.0
2014-Jul-15 13:32N 34°41' E 135°11'0 0.0
2014-Jul-15 12:29N 34°41' E 135°11'8 8.6
2014-Jul-15 11:33N 34°35' E 135°05'2 2.0
2014-Jul-15 10:33N 34°37' E 135°06'6 5.9
2014-Jul-15 09:32N 34°41' E 135°11'5 5.5
2014-Jul-15 08:33N 34°37' E 135°06'5 4.6
2014-Jul-15 07:23N 34°41' E 135°11'0 0.0
2014-Jul-15 06:23N 34°41' E 135°11'0 0.0
2014-Jul-15 05:29N 34°41' E 135°11'2 2.5
2014-Jul-15 04:33N 34°39' E 135°11'  

Dump ship's entire track history